BVG1741 EGPF-GCLP
Flight info
| Callsign | BVG1741 |
|---|---|
| Flight time | 4h 51m |
| Altitude | 34000 |
| Route | NORB1J NORBO L186 TRN DCT BLACA DCT NELBO DCT NIMAT DCT TUVEN/M080F340 DCT LASNO T9 BEGAS/N0465F340 DCT RIPEL DCT DIDIT DCT VEDEL DCT TABAX DCT PECKY DCT RAKUN DCT ORTIS6C |
| Aircraft | B739/M-SDE2E3FGHIRWXY/LB1 |
Departure
| Time | 2026-05-04 21:47 |
|---|---|
| Airport | Glasgow Airport (EGPF) |
Arrival
| Time | 2026-05-05 02:38 |
|---|---|
| Airport | Gran Canaria Airport (GCLP) |
| Time | Latitude | Longitude | Altitude | Speed | Heading |
|---|---|---|---|---|---|
| 2026-05-04 21:32 | 55.86622 | -4.42929 | 34 ft | 0 kts | 261° |
| 2026-05-04 21:42 | 55.86622 | -4.42931 | 34 ft | 1 kts | 261° |
| 2026-05-04 21:42 | 55.86618 | -4.42969 | 34 ft | 7 kts | 261° |
| 2026-05-04 21:43 | 55.86613 | -4.43101 | 34 ft | 14 kts | 278° |
| 2026-05-04 21:43 | 55.86608 | -4.43315 | 34 ft | 19 kts | 275° |
| 2026-05-04 21:43 | 55.86613 | -4.43550 | 34 ft | 24 kts | 268° |
| 2026-05-04 21:43 | 55.86609 | -4.43859 | 34 ft | 25 kts | 268° |
| 2026-05-04 21:44 | 55.86549 | -4.44100 | 34 ft | 23 kts | 221° |
| 2026-05-04 21:44 | 55.86442 | -4.44290 | 34 ft | 22 kts | 239° |
| 2026-05-04 21:44 | 55.86342 | -4.44469 | 34 ft | 21 kts | 235° |
| 2026-05-04 21:44 | 55.86257 | -4.44660 | 34 ft | 17 kts | 248° |
| 2026-05-04 21:45 | 55.86279 | -4.44836 | 34 ft | 16 kts | 339° |
| 2026-05-04 21:45 | 55.86381 | -4.44874 | 34 ft | 13 kts | 18° |
| 2026-05-04 21:45 | 55.86441 | -4.44765 | 34 ft | 6 kts | 51° |
| 2026-05-04 21:45 | 55.86441 | -4.44764 | 34 ft | 0 kts | 51° |
| 2026-05-04 21:46 | 55.86457 | -4.44730 | 34 ft | 20 kts | 51° |
| 2026-05-04 21:46 | 55.86677 | -4.44314 | 34 ft | 78 kts | 43° |
| 2026-05-04 21:46 | 55.87174 | -4.43336 | 34 ft | 135 kts | 38° |
| 2026-05-04 21:47 | 55.87905 | -4.42062 | 34 ft | 181 kts | 49° |
| 2026-05-04 21:47 | 55.88608 | -4.40212 | 571 ft | 178 kts | 75° |
| 2026-05-04 21:47 | 55.88717 | -4.38433 | 1517 ft | 167 kts | 82° |
| 2026-05-04 21:47 | 55.89196 | -4.36462 | 2088 ft | 175 kts | 54° |
| 2026-05-04 21:48 | 55.90001 | -4.35005 | 2346 ft | 193 kts | 38° |
| 2026-05-04 21:48 | 55.91004 | -4.33866 | 2595 ft | 210 kts | 27° |
| 2026-05-04 21:48 | 55.92339 | -4.33088 | 3112 ft | 211 kts | 6° |
| 2026-05-04 21:48 | 55.93817 | -4.33563 | 3720 ft | 212 kts | 334° |
| 2026-05-04 21:49 | 55.94886 | -4.35301 | 4300 ft | 212 kts | 303° |
| 2026-05-04 21:49 | 55.95258 | -4.37141 | 4776 ft | 211 kts | 279° |
| 2026-05-04 21:49 | 55.95068 | -4.39674 | 5378 ft | 214 kts | 250° |
| 2026-05-04 21:49 | 55.94161 | -4.41734 | 5872 ft | 220 kts | 221° |
| 2026-05-04 21:50 | 55.92907 | -4.42737 | 6072 ft | 227 kts | 196° |
| 2026-05-04 21:50 | 55.91254 | -4.42551 | 6050 ft | 236 kts | 165° |
| 2026-05-04 21:50 | 55.89881 | -4.40972 | 6023 ft | 240 kts | 135° |
| 2026-05-04 21:50 | 55.89106 | -4.38546 | 6009 ft | 239 kts | 106° |
| 2026-05-04 21:51 | 55.89032 | -4.35788 | 6007 ft | 238 kts | 77° |
| 2026-05-04 21:51 | 55.89724 | -4.33176 | 6064 ft | 231 kts | 46° |
| 2026-05-04 21:51 | 55.90934 | -4.31635 | 6288 ft | 226 kts | 17° |
| 2026-05-04 21:51 | 55.92417 | -4.31314 | 6538 ft | 221 kts | 347° |
| 2026-05-04 21:52 | 55.93792 | -4.32357 | 6788 ft | 213 kts | 317° |
| 2026-05-04 21:52 | 55.94607 | -4.34350 | 7064 ft | 208 kts | 290° |
| 2026-05-04 21:52 | 55.94870 | -4.36954 | 7420 ft | 208 kts | 273° |
| 2026-05-04 21:52 | 55.94990 | -4.39454 | 7726 ft | 209 kts | 274° |
| 2026-05-04 21:53 | 55.95103 | -4.41964 | 8037 ft | 210 kts | 274° |
| 2026-05-04 21:53 | 55.95212 | -4.44458 | 8179 ft | 213 kts | 274° |
| 2026-05-04 21:53 | 55.95321 | -4.46956 | 8174 ft | 212 kts | 274° |
| 2026-05-04 21:53 | 55.95250 | -4.49412 | 8195 ft | 209 kts | 254° |
| 2026-05-04 21:54 | 55.94573 | -4.51616 | 8510 ft | 211 kts | 236° |
| 2026-05-04 21:54 | 55.93659 | -4.53643 | 8868 ft | 215 kts | 233° |
| 2026-05-04 21:54 | 55.92651 | -4.55595 | 9188 ft | 220 kts | 229° |
| 2026-05-04 21:54 | 55.91577 | -4.57530 | 9512 ft | 220 kts | 229° |
| 2026-05-04 21:55 | 55.90511 | -4.59440 | 9905 ft | 220 kts | 229° |
| 2026-05-04 21:55 | 55.89462 | -4.61312 | 10493 ft | 226 kts | 228° |
| 2026-05-04 21:55 | 55.88320 | -4.63373 | 10737 ft | 247 kts | 229° |
| 2026-05-04 21:55 | 55.86956 | -4.65393 | 11143 ft | 260 kts | 214° |
| 2026-05-04 21:56 | 55.85270 | -4.66687 | 11588 ft | 275 kts | 201° |
| 2026-05-04 21:56 | 55.83394 | -4.67561 | 11818 ft | 294 kts | 197° |
| 2026-05-04 21:56 | 55.81326 | -4.68344 | 12114 ft | 309 kts | 195° |
| 2026-05-04 21:56 | 55.79257 | -4.69078 | 12356 ft | 325 kts | 195° |
| 2026-05-04 21:57 | 55.76971 | -4.69898 | 12640 ft | 339 kts | 195° |
| 2026-05-04 21:57 | 55.74690 | -4.70722 | 12884 ft | 353 kts | 195° |
| 2026-05-04 21:57 | 55.72243 | -4.71610 | 12995 ft | 371 kts | 195° |
| 2026-05-04 21:57 | 55.69598 | -4.72570 | 13006 ft | 389 kts | 195° |
| 2026-05-04 21:58 | 55.66925 | -4.73541 | 13007 ft | 399 kts | 194° |
| 2026-05-04 21:58 | 55.64195 | -4.74532 | 13003 ft | 400 kts | 194° |
| 2026-05-04 21:58 | 55.61485 | -4.75513 | 13002 ft | 397 kts | 194° |
| 2026-05-04 21:58 | 55.58738 | -4.76232 | 13015 ft | 401 kts | 189° |
| 2026-05-04 21:59 | 55.55964 | -4.76563 | 13492 ft | 404 kts | 186° |
| 2026-05-04 21:59 | 55.53131 | -4.76751 | 14127 ft | 405 kts | 185° |
| 2026-05-04 21:59 | 55.50309 | -4.76947 | 14589 ft | 410 kts | 185° |
| 2026-05-04 21:59 | 55.47515 | -4.77153 | 15110 ft | 412 kts | 186° |
| 2026-05-04 22:00 | 55.44613 | -4.77374 | 15601 ft | 415 kts | 186° |
| 2026-05-04 22:00 | 55.42135 | -4.77564 | 16014 ft | 418 kts | 186° |
| 2026-05-04 22:00 | 55.39196 | -4.77790 | 16488 ft | 421 kts | 186° |
| 2026-05-04 22:00 | 55.36326 | -4.78012 | 16935 ft | 423 kts | 186° |
| 2026-05-04 22:01 | 55.33371 | -4.78540 | 17384 ft | 423 kts | 193° |
| 2026-05-04 22:01 | 55.30576 | -4.79761 | 17807 ft | 422 kts | 202° |
| 2026-05-04 22:01 | 55.27841 | -4.81727 | 18247 ft | 423 kts | 207° |
| 2026-05-04 22:01 | 55.25132 | -4.83905 | 18668 ft | 425 kts | 208° |
| 2026-05-04 22:02 | 55.22496 | -4.86163 | 19078 ft | 427 kts | 209° |
| 2026-05-04 22:02 | 55.19839 | -4.88467 | 19479 ft | 430 kts | 209° |
| 2026-05-04 22:02 | 55.17157 | -4.90803 | 19871 ft | 432 kts | 210° |
| 2026-05-04 22:02 | 55.14647 | -4.93046 | 20226 ft | 434 kts | 210° |
| 2026-05-04 22:03 | 55.11881 | -4.95490 | 20609 ft | 437 kts | 210° |
| 2026-05-04 22:03 | 55.09198 | -4.97837 | 20959 ft | 439 kts | 209° |
| 2026-05-04 22:03 | 55.06537 | -5.00151 | 21297 ft | 442 kts | 209° |
| 2026-05-04 22:03 | 55.03745 | -5.02571 | 21641 ft | 444 kts | 209° |
| 2026-05-04 22:04 | 55.01041 | -5.04910 | 21959 ft | 446 kts | 209° |
| 2026-05-04 22:04 | 54.98212 | -5.07354 | 22285 ft | 448 kts | 209° |
| 2026-05-04 22:04 | 54.95401 | -5.09779 | 22598 ft | 450 kts | 209° |
| 2026-05-04 22:04 | 54.92582 | -5.12209 | 22899 ft | 453 kts | 209° |
| 2026-05-04 22:05 | 54.89731 | -5.14437 | 23192 ft | 456 kts | 205° |
| 2026-05-04 22:05 | 54.86704 | -5.16250 | 23475 ft | 461 kts | 198° |
| 2026-05-04 22:05 | 54.83623 | -5.17550 | 23756 ft | 464 kts | 196° |
| 2026-05-04 22:05 | 54.80488 | -5.18754 | 24019 ft | 466 kts | 195° |
| 2026-05-04 22:06 | 54.77308 | -5.19961 | 24289 ft | 468 kts | 195° |
| 2026-05-04 22:06 | 54.74174 | -5.21126 | 24542 ft | 470 kts | 195° |
| 2026-05-04 22:06 | 54.70930 | -5.22319 | 24799 ft | 472 kts | 195° |
| 2026-05-04 22:06 | 54.67736 | -5.23487 | 25041 ft | 473 kts | 195° |
| 2026-05-04 22:07 | 54.64497 | -5.24669 | 25358 ft | 473 kts | 195° |
| 2026-05-04 22:07 | 54.61348 | -5.25815 | 25764 ft | 471 kts | 195° |
| 2026-05-04 22:07 | 54.58126 | -5.26987 | 26080 ft | 471 kts | 195° |
| 2026-05-04 22:07 | 54.54912 | -5.28154 | 26383 ft | 471 kts | 195° |
| 2026-05-04 22:08 | 54.51840 | -5.29351 | 26750 ft | 468 kts | 198° |
| 2026-05-04 22:08 | 54.48705 | -5.31012 | 27050 ft | 466 kts | 202° |
| 2026-05-04 22:08 | 54.45772 | -5.33052 | 27340 ft | 464 kts | 207° |
| 2026-05-04 22:08 | 54.42869 | -5.35406 | 27711 ft | 461 kts | 209° |
| 2026-05-04 22:09 | 54.40086 | -5.37775 | 27984 ft | 462 kts | 209° |
| 2026-05-04 22:09 | 54.37182 | -5.40234 | 28284 ft | 461 kts | 209° |
| 2026-05-04 22:09 | 54.34324 | -5.42642 | 28648 ft | 459 kts | 209° |
| 2026-05-04 22:09 | 54.31419 | -5.45081 | 28921 ft | 460 kts | 208° |
| 2026-05-04 22:10 | 54.28567 | -5.47470 | 29222 ft | 459 kts | 208° |
| 2026-05-04 22:10 | 54.25712 | -5.49859 | 29566 ft | 458 kts | 209° |
| 2026-05-04 22:10 | 54.22824 | -5.52340 | 29817 ft | 458 kts | 209° |
| 2026-05-04 22:10 | 54.19999 | -5.54736 | 30117 ft | 457 kts | 209° |
| 2026-05-04 22:11 | 54.17179 | -5.57098 | 30437 ft | 456 kts | 208° |
| 2026-05-04 22:11 | 54.14294 | -5.59499 | 30671 ft | 457 kts | 208° |
| 2026-05-04 22:11 | 54.11541 | -5.61781 | 30942 ft | 456 kts | 208° |
| 2026-05-04 22:11 | 54.08822 | -5.64032 | 31252 ft | 454 kts | 208° |
| 2026-05-04 22:12 | 54.05887 | -5.66457 | 31479 ft | 455 kts | 208° |
| 2026-05-04 22:12 | 54.03185 | -5.68686 | 31712 ft | 455 kts | 208° |
| 2026-05-04 22:12 | 54.00426 | -5.70962 | 32028 ft | 452 kts | 208° |
| 2026-05-04 22:12 | 53.97635 | -5.73262 | 32252 ft | 453 kts | 208° |
| 2026-05-04 22:13 | 53.94702 | -5.75702 | 32486 ft | 452 kts | 210° |
| 2026-05-04 22:13 | 53.91991 | -5.78125 | 32759 ft | 450 kts | 211° |
| 2026-05-04 22:13 | 53.89256 | -5.80658 | 32976 ft | 451 kts | 211° |
| 2026-05-04 22:13 | 53.86474 | -5.83214 | 33222 ft | 450 kts | 211° |
| 2026-05-04 22:14 | 53.83739 | -5.85710 | 33459 ft | 449 kts | 211° |
| 2026-05-04 22:14 | 53.80985 | -5.88208 | 33678 ft | 449 kts | 211° |
| 2026-05-04 22:14 | 53.78213 | -5.90712 | 33917 ft | 449 kts | 211° |
| 2026-05-04 22:15 | 53.72737 | -5.95638 | 33989 ft | 454 kts | 211° |
| 2026-05-04 22:15 | 53.67145 | -6.00646 | 33997 ft | 454 kts | 211° |
| 2026-05-04 22:16 | 53.61728 | -6.05569 | 33997 ft | 453 kts | 211° |
| 2026-05-04 22:16 | 53.56260 | -6.10509 | 33997 ft | 453 kts | 211° |
| 2026-05-04 22:17 | 53.50800 | -6.15402 | 33997 ft | 453 kts | 211° |
| 2026-05-04 22:17 | 53.45232 | -6.20366 | 33997 ft | 453 kts | 211° |
| 2026-05-04 22:18 | 53.39704 | -6.25273 | 33998 ft | 453 kts | 211° |
| 2026-05-04 22:18 | 53.34152 | -6.30186 | 33997 ft | 453 kts | 210° |
| 2026-05-04 22:19 | 53.28552 | -6.35127 | 33997 ft | 453 kts | 210° |
| 2026-05-04 22:19 | 53.23027 | -6.39985 | 33997 ft | 453 kts | 210° |
| 2026-05-04 22:20 | 53.17602 | -6.44742 | 33996 ft | 453 kts | 210° |
| 2026-05-04 22:20 | 53.11891 | -6.49734 | 33996 ft | 453 kts | 210° |
| 2026-05-04 22:21 | 53.06402 | -6.54519 | 34000 ft | 453 kts | 210° |
| 2026-05-04 22:21 | 53.00859 | -6.59336 | 33997 ft | 453 kts | 210° |
| 2026-05-04 22:22 | 52.95278 | -6.64173 | 33997 ft | 453 kts | 210° |
| 2026-05-04 22:22 | 52.89622 | -6.69060 | 33997 ft | 453 kts | 210° |
| 2026-05-04 22:23 | 52.84200 | -6.73731 | 33997 ft | 453 kts | 210° |
| 2026-05-04 22:23 | 52.78539 | -6.78594 | 33996 ft | 453 kts | 210° |
| 2026-05-04 22:24 | 52.72976 | -6.83358 | 33997 ft | 453 kts | 210° |
| 2026-05-04 22:24 | 52.67346 | -6.88166 | 33997 ft | 453 kts | 210° |
| 2026-05-04 22:25 | 52.61849 | -6.92848 | 33998 ft | 453 kts | 210° |
| 2026-05-04 22:25 | 52.57113 | -6.96870 | 33997 ft | 453 kts | 210° |
| 2026-05-04 22:26 | 52.50617 | -7.02371 | 33996 ft | 453 kts | 210° |
| 2026-05-04 22:26 | 52.45024 | -7.07092 | 33997 ft | 453 kts | 210° |
| 2026-05-04 22:27 | 52.39467 | -7.11770 | 33996 ft | 453 kts | 210° |
| 2026-05-04 22:27 | 52.34790 | -7.15697 | 33998 ft | 453 kts | 210° |
| 2026-05-04 22:28 | 52.29186 | -7.20389 | 33997 ft | 453 kts | 210° |
| 2026-05-04 22:28 | 52.23573 | -7.25077 | 33997 ft | 453 kts | 210° |
| 2026-05-04 22:29 | 52.18005 | -7.29712 | 33997 ft | 453 kts | 210° |
| 2026-05-04 22:29 | 52.12399 | -7.34367 | 33997 ft | 453 kts | 210° |
| 2026-05-04 22:30 | 52.06840 | -7.38969 | 33997 ft | 453 kts | 210° |
| 2026-05-04 22:30 | 52.01334 | -7.43515 | 33997 ft | 453 kts | 210° |
| 2026-05-04 22:31 | 51.95928 | -7.47965 | 33997 ft | 453 kts | 210° |
| 2026-05-04 22:31 | 51.90382 | -7.52519 | 33997 ft | 453 kts | 210° |
| 2026-05-04 22:32 | 51.84751 | -7.57129 | 33997 ft | 453 kts | 210° |
| 2026-05-04 22:32 | 51.79209 | -7.61655 | 33997 ft | 453 kts | 210° |
| 2026-05-04 22:33 | 51.73508 | -7.66296 | 33997 ft | 453 kts | 209° |
| 2026-05-04 22:33 | 51.67976 | -7.70788 | 33996 ft | 453 kts | 209° |
| 2026-05-04 22:34 | 51.62279 | -7.75401 | 33997 ft | 453 kts | 209° |
| 2026-05-04 22:34 | 51.56744 | -7.79870 | 33997 ft | 453 kts | 209° |
| 2026-05-04 22:35 | 51.51130 | -7.84390 | 33997 ft | 453 kts | 209° |
| 2026-05-04 22:35 | 51.45448 | -7.88953 | 33997 ft | 453 kts | 209° |
| 2026-05-04 22:36 | 51.39898 | -7.93398 | 33997 ft | 453 kts | 209° |
| 2026-05-04 22:36 | 51.34211 | -7.97939 | 33997 ft | 453 kts | 209° |
| 2026-05-04 22:37 | 51.28649 | -8.02373 | 33997 ft | 453 kts | 210° |
| 2026-05-04 22:37 | 51.23054 | -8.06860 | 33997 ft | 453 kts | 209° |
| 2026-05-04 22:38 | 51.17418 | -8.11317 | 33997 ft | 453 kts | 209° |
| 2026-05-04 22:38 | 51.11810 | -8.15731 | 33997 ft | 453 kts | 209° |
| 2026-05-04 22:39 | 51.06179 | -8.20152 | 33997 ft | 453 kts | 209° |
| 2026-05-04 22:39 | 51.00394 | -8.24307 | 33997 ft | 456 kts | 202° |
| 2026-05-04 22:40 | 50.94294 | -8.26900 | 33997 ft | 459 kts | 195° |
| 2026-05-04 22:40 | 50.88194 | -8.28879 | 33997 ft | 459 kts | 194° |
| 2026-05-04 22:41 | 50.81963 | -8.30888 | 33997 ft | 459 kts | 194° |
| 2026-05-04 22:41 | 50.75739 | -8.32898 | 33997 ft | 459 kts | 194° |
| 2026-05-04 22:42 | 50.69472 | -8.34919 | 33996 ft | 459 kts | 194° |
| 2026-05-04 22:42 | 50.63255 | -8.36941 | 33997 ft | 459 kts | 194° |
| 2026-05-04 22:43 | 50.57000 | -8.38978 | 33997 ft | 459 kts | 194° |
| 2026-05-04 22:43 | 50.50793 | -8.40983 | 33997 ft | 459 kts | 194° |
| 2026-05-04 22:44 | 50.44550 | -8.42991 | 33997 ft | 459 kts | 194° |
| 2026-05-04 22:44 | 50.38310 | -8.44991 | 33997 ft | 459 kts | 194° |
| 2026-05-04 22:45 | 50.32170 | -8.46953 | 33997 ft | 459 kts | 194° |
| 2026-05-04 22:45 | 50.22706 | -8.49966 | 33996 ft | 459 kts | 194° |
| 2026-05-04 22:46 | 50.16405 | -8.51965 | 33995 ft | 459 kts | 194° |
| 2026-05-04 22:46 | 50.10227 | -8.53920 | 33996 ft | 459 kts | 194° |
| 2026-05-04 22:47 | 50.04044 | -8.55872 | 33996 ft | 459 kts | 194° |
| 2026-05-04 22:47 | 49.97728 | -8.57860 | 33997 ft | 459 kts | 194° |
| 2026-05-04 22:48 | 49.91451 | -8.59830 | 33997 ft | 459 kts | 194° |
| 2026-05-04 22:48 | 49.85366 | -8.61736 | 33997 ft | 459 kts | 194° |
| 2026-05-04 22:49 | 49.79101 | -8.63692 | 33997 ft | 459 kts | 194° |
| 2026-05-04 22:49 | 49.72856 | -8.65638 | 33997 ft | 459 kts | 194° |
| 2026-05-04 22:50 | 49.66610 | -8.67578 | 33997 ft | 459 kts | 194° |
| 2026-05-04 22:50 | 49.60425 | -8.69495 | 33997 ft | 459 kts | 194° |
| 2026-05-04 22:51 | 49.54158 | -8.71432 | 33997 ft | 459 kts | 194° |
| 2026-05-04 22:51 | 49.47919 | -8.73355 | 33997 ft | 459 kts | 194° |
| 2026-05-04 22:52 | 49.41802 | -8.75236 | 33997 ft | 459 kts | 194° |
| 2026-05-04 22:52 | 49.35616 | -8.77133 | 33997 ft | 459 kts | 194° |
| 2026-05-04 22:53 | 49.29332 | -8.79055 | 33997 ft | 459 kts | 194° |
| 2026-05-04 22:53 | 49.23171 | -8.80935 | 33997 ft | 459 kts | 194° |
| 2026-05-04 22:54 | 49.16952 | -8.82827 | 33997 ft | 459 kts | 194° |
| 2026-05-04 22:54 | 49.10848 | -8.84680 | 33997 ft | 459 kts | 194° |
| 2026-05-04 22:55 | 49.04610 | -8.86569 | 33997 ft | 459 kts | 194° |
| 2026-05-04 22:55 | 48.98341 | -8.88463 | 33996 ft | 459 kts | 194° |
| 2026-05-04 22:56 | 48.92153 | -8.90327 | 33996 ft | 459 kts | 194° |
| 2026-05-04 22:56 | 48.85916 | -8.92218 | 33997 ft | 460 kts | 194° |
| 2026-05-04 22:57 | 48.79685 | -8.94084 | 33997 ft | 459 kts | 194° |
| 2026-05-04 22:57 | 48.73595 | -8.95899 | 33997 ft | 460 kts | 194° |
| 2026-05-04 22:58 | 48.67397 | -8.97743 | 33996 ft | 460 kts | 194° |
| 2026-05-04 22:58 | 48.61017 | -8.99541 | 33997 ft | 461 kts | 191° |
| 2026-05-04 22:59 | 48.54650 | -9.00066 | 33997 ft | 464 kts | 183° |
| 2026-05-04 22:59 | 48.48209 | -9.00035 | 33996 ft | 464 kts | 183° |
| 2026-05-04 23:00 | 48.42037 | -9.00015 | 33997 ft | 464 kts | 183° |
| 2026-05-04 23:00 | 48.35556 | -9.00006 | 33997 ft | 464 kts | 183° |
| 2026-05-04 23:01 | 48.29072 | -9.00003 | 33997 ft | 464 kts | 183° |
| 2026-05-04 23:01 | 48.22792 | -9.00001 | 33997 ft | 464 kts | 183° |
| 2026-05-04 23:02 | 48.16319 | -9.00000 | 33996 ft | 464 kts | 183° |
| 2026-05-04 23:02 | 48.09877 | -9.00000 | 33997 ft | 464 kts | 183° |
| 2026-05-04 23:03 | 48.03356 | -9.00000 | 33997 ft | 464 kts | 183° |
| 2026-05-04 23:03 | 47.97089 | -9.00000 | 33997 ft | 464 kts | 183° |
| 2026-05-04 23:04 | 47.90657 | -9.00000 | 33997 ft | 464 kts | 183° |
| 2026-05-04 23:04 | 47.84252 | -9.00000 | 33996 ft | 464 kts | 183° |
| 2026-05-04 23:05 | 47.77930 | -9.00000 | 33997 ft | 464 kts | 183° |
| 2026-05-04 23:05 | 47.71448 | -9.00000 | 33997 ft | 464 kts | 183° |
| 2026-05-04 23:06 | 47.64897 | -9.00000 | 33997 ft | 464 kts | 183° |
| 2026-05-04 23:06 | 47.58424 | -9.00000 | 33997 ft | 465 kts | 183° |
| 2026-05-04 23:07 | 47.52146 | -9.00000 | 33997 ft | 465 kts | 183° |
| 2026-05-04 23:07 | 47.45688 | -9.00000 | 33996 ft | 465 kts | 183° |
| 2026-05-04 23:08 | 47.39244 | -9.00000 | 33996 ft | 465 kts | 183° |
| 2026-05-04 23:08 | 47.33898 | -9.00000 | 33997 ft | 464 kts | 183° |
| 2026-05-04 23:09 | 47.26357 | -9.00000 | 33997 ft | 465 kts | 183° |
| 2026-05-04 23:09 | 47.19913 | -9.00000 | 33996 ft | 465 kts | 183° |
| 2026-05-04 23:10 | 47.14621 | -9.00000 | 33997 ft | 465 kts | 183° |
| 2026-05-04 23:10 | 47.08209 | -9.00000 | 33997 ft | 465 kts | 183° |
| 2026-05-04 23:11 | 47.00708 | -9.00000 | 33997 ft | 465 kts | 183° |
| 2026-05-04 23:11 | 46.94217 | -9.00000 | 33997 ft | 465 kts | 183° |
| 2026-05-04 23:12 | 46.88820 | -9.00000 | 33996 ft | 465 kts | 183° |
| 2026-05-04 23:12 | 46.81315 | -9.00000 | 33997 ft | 465 kts | 183° |
| 2026-05-04 23:13 | 46.74893 | -9.00000 | 33996 ft | 465 kts | 183° |
| 2026-05-04 23:13 | 46.69497 | -9.00000 | 33997 ft | 464 kts | 183° |
| 2026-05-04 23:14 | 46.63052 | -9.00000 | 33997 ft | 465 kts | 183° |
| 2026-05-04 23:14 | 46.56547 | -9.00000 | 33997 ft | 465 kts | 183° |
| 2026-05-04 23:15 | 46.50145 | -9.00000 | 33997 ft | 465 kts | 183° |
| 2026-05-04 23:15 | 46.43697 | -9.00000 | 33997 ft | 465 kts | 183° |
| 2026-05-04 23:16 | 46.37306 | -9.00000 | 33997 ft | 465 kts | 183° |
| 2026-05-04 23:16 | 46.30847 | -9.00000 | 33997 ft | 465 kts | 183° |
| 2026-05-04 23:17 | 46.24335 | -9.00000 | 33996 ft | 465 kts | 183° |
| 2026-05-04 23:17 | 46.17845 | -9.00000 | 33997 ft | 465 kts | 183° |
| 2026-05-04 23:18 | 46.11479 | -9.00000 | 33997 ft | 465 kts | 183° |
| 2026-05-04 23:18 | 46.05077 | -9.00000 | 33997 ft | 465 kts | 183° |
| 2026-05-04 23:19 | 45.98631 | -9.00000 | 33998 ft | 465 kts | 183° |
| 2026-05-04 23:19 | 45.92258 | -9.00000 | 33998 ft | 465 kts | 183° |
| 2026-05-04 23:20 | 45.85793 | -9.00000 | 33997 ft | 464 kts | 183° |
| 2026-05-04 23:20 | 45.79345 | -9.00000 | 33997 ft | 465 kts | 183° |
| 2026-05-04 23:21 | 45.72873 | -9.00000 | 33997 ft | 465 kts | 183° |
| 2026-05-04 23:21 | 45.66483 | -9.00000 | 33997 ft | 465 kts | 183° |
| 2026-05-04 23:22 | 45.59951 | -9.00000 | 33997 ft | 465 kts | 183° |
| 2026-05-04 23:22 | 45.53548 | -9.00000 | 33997 ft | 465 kts | 183° |
| 2026-05-04 23:23 | 45.47065 | -9.00000 | 33997 ft | 465 kts | 183° |
| 2026-05-04 23:23 | 45.40621 | -9.00000 | 33996 ft | 465 kts | 183° |
| 2026-05-04 23:24 | 45.34115 | -9.00000 | 33997 ft | 464 kts | 183° |
| 2026-05-04 23:24 | 45.27734 | -9.00000 | 33997 ft | 464 kts | 183° |
| 2026-05-04 23:25 | 45.21348 | -9.00000 | 33997 ft | 465 kts | 183° |
| 2026-05-04 23:25 | 45.14854 | -9.00000 | 33996 ft | 465 kts | 183° |
| 2026-05-04 23:26 | 45.08764 | -9.00000 | 33998 ft | 464 kts | 183° |
| 2026-05-04 23:26 | 45.02376 | -9.00334 | 33994 ft | 461 kts | 192° |
| 2026-05-04 23:27 | 44.96352 | -9.02813 | 34000 ft | 455 kts | 206° |
| 2026-05-04 23:27 | 44.90621 | -9.06589 | 33997 ft | 453 kts | 209° |
| 2026-05-04 23:28 | 44.84956 | -9.10521 | 33997 ft | 453 kts | 209° |
| 2026-05-04 23:28 | 44.79305 | -9.14443 | 33997 ft | 453 kts | 209° |
| 2026-05-04 23:29 | 44.73824 | -9.18243 | 33997 ft | 453 kts | 209° |
| 2026-05-04 23:29 | 44.68126 | -9.22198 | 33997 ft | 453 kts | 209° |
| 2026-05-04 23:30 | 44.62765 | -9.25956 | 33997 ft | 453 kts | 209° |
| 2026-05-04 23:30 | 44.57286 | -9.29769 | 33997 ft | 453 kts | 209° |
| 2026-05-04 23:31 | 44.51643 | -9.33675 | 33997 ft | 453 kts | 209° |
| 2026-05-04 23:31 | 44.46015 | -9.37559 | 33997 ft | 453 kts | 209° |
| 2026-05-04 23:32 | 44.40382 | -9.41437 | 33997 ft | 453 kts | 209° |
| 2026-05-04 23:32 | 44.34694 | -9.45342 | 33997 ft | 453 kts | 209° |
| 2026-05-04 23:33 | 44.29055 | -9.49206 | 33997 ft | 453 kts | 209° |
| 2026-05-04 23:33 | 44.23519 | -9.52991 | 33997 ft | 453 kts | 209° |
| 2026-05-04 23:34 | 44.17794 | -9.56896 | 33997 ft | 453 kts | 209° |
| 2026-05-04 23:34 | 44.12175 | -9.60720 | 33997 ft | 453 kts | 208° |
| 2026-05-04 23:35 | 44.06585 | -9.64518 | 33997 ft | 453 kts | 208° |
| 2026-05-04 23:35 | 44.00976 | -9.68319 | 33997 ft | 453 kts | 208° |
| 2026-05-04 23:36 | 43.95224 | -9.72209 | 33998 ft | 453 kts | 208° |
| 2026-05-04 23:36 | 43.89590 | -9.76012 | 33998 ft | 453 kts | 208° |
| 2026-05-04 23:37 | 43.83903 | -9.79842 | 33997 ft | 453 kts | 208° |
| 2026-05-04 23:37 | 43.78249 | -9.83642 | 33997 ft | 453 kts | 208° |
| 2026-05-04 23:38 | 43.72645 | -9.87400 | 33997 ft | 453 kts | 208° |
| 2026-05-04 23:38 | 43.67058 | -9.91139 | 33997 ft | 453 kts | 208° |
| 2026-05-04 23:39 | 43.61358 | -9.94946 | 33996 ft | 453 kts | 208° |
| 2026-05-04 23:39 | 43.55656 | -9.98746 | 33997 ft | 453 kts | 208° |
| 2026-05-04 23:40 | 43.50008 | -10.02502 | 33996 ft | 453 kts | 208° |
| 2026-05-04 23:40 | 43.44363 | -10.06248 | 33997 ft | 453 kts | 208° |
| 2026-05-04 23:41 | 43.38812 | -10.09924 | 33999 ft | 453 kts | 208° |
| 2026-05-04 23:41 | 43.33100 | -10.13699 | 33997 ft | 453 kts | 208° |
| 2026-05-04 23:42 | 43.27426 | -10.17442 | 33997 ft | 453 kts | 208° |
| 2026-05-04 23:42 | 43.21774 | -10.21162 | 33997 ft | 453 kts | 208° |
| 2026-05-04 23:43 | 43.16203 | -10.24820 | 33997 ft | 453 kts | 208° |
| 2026-05-04 23:43 | 43.10541 | -10.28531 | 33997 ft | 453 kts | 208° |
| 2026-05-04 23:44 | 43.04924 | -10.32206 | 33997 ft | 453 kts | 208° |
| 2026-05-04 23:44 | 42.99293 | -10.35882 | 33997 ft | 453 kts | 208° |
| 2026-05-04 23:45 | 42.93510 | -10.39650 | 33997 ft | 453 kts | 208° |
| 2026-05-04 23:45 | 42.87898 | -10.43298 | 33997 ft | 453 kts | 208° |
| 2026-05-04 23:46 | 42.82250 | -10.46962 | 33997 ft | 454 kts | 208° |
| 2026-05-04 23:46 | 42.76573 | -10.50638 | 33997 ft | 454 kts | 208° |
| 2026-05-04 23:47 | 42.70920 | -10.54291 | 33997 ft | 454 kts | 208° |
| 2026-05-04 23:47 | 42.65237 | -10.57956 | 33997 ft | 454 kts | 208° |
| 2026-05-04 23:48 | 42.59556 | -10.61612 | 33997 ft | 454 kts | 208° |
| 2026-05-04 23:48 | 42.53943 | -10.65241 | 33997 ft | 453 kts | 208° |
| 2026-05-04 23:49 | 42.48329 | -10.68843 | 33997 ft | 454 kts | 208° |
| 2026-05-04 23:49 | 42.42630 | -10.72480 | 33997 ft | 454 kts | 208° |
| 2026-05-04 23:50 | 42.36993 | -10.76071 | 33997 ft | 454 kts | 208° |
| 2026-05-04 23:50 | 42.31329 | -10.79673 | 33997 ft | 454 kts | 208° |
| 2026-05-04 23:51 | 42.25669 | -10.83520 | 33997 ft | 452 kts | 212° |
| 2026-05-04 23:51 | 42.20314 | -10.87847 | 33996 ft | 451 kts | 213° |
| 2026-05-04 23:52 | 42.14873 | -10.92230 | 33997 ft | 452 kts | 213° |
| 2026-05-04 23:52 | 42.09460 | -10.96539 | 33996 ft | 452 kts | 213° |
| 2026-05-04 23:53 | 42.04321 | -11.00607 | 33997 ft | 452 kts | 213° |
| 2026-05-04 23:53 | 41.98917 | -11.04872 | 33997 ft | 452 kts | 213° |
| 2026-05-04 23:54 | 41.93491 | -11.09197 | 33997 ft | 452 kts | 213° |
| 2026-05-04 23:54 | 41.88136 | -11.13435 | 33997 ft | 452 kts | 213° |
| 2026-05-04 23:55 | 41.82828 | -11.17615 | 33997 ft | 452 kts | 213° |
| 2026-05-04 23:56 | 41.74813 | -11.23906 | 33997 ft | 452 kts | 213° |
| 2026-05-04 23:56 | 41.70329 | -11.27418 | 33997 ft | 452 kts | 213° |
| 2026-05-04 23:57 | 41.64031 | -11.32339 | 33998 ft | 452 kts | 213° |
| 2026-05-04 23:57 | 41.58671 | -11.36533 | 33997 ft | 452 kts | 213° |
| 2026-05-04 23:58 | 41.53334 | -11.40707 | 33997 ft | 452 kts | 213° |
| 2026-05-04 23:58 | 41.47905 | -11.44917 | 33997 ft | 452 kts | 213° |
| 2026-05-04 23:59 | 41.42396 | -11.49175 | 33996 ft | 452 kts | 213° |
| 2026-05-04 23:59 | 41.37836 | -11.52696 | 33997 ft | 452 kts | 213° |
| 2026-05-05 00:00 | 41.32375 | -11.56909 | 33997 ft | 452 kts | 213° |
| 2026-05-05 00:00 | 41.27212 | -11.60966 | 33996 ft | 452 kts | 212° |
| 2026-05-05 00:01 | 41.21805 | -11.65052 | 33998 ft | 452 kts | 212° |
| 2026-05-05 00:01 | 41.16247 | -11.69276 | 33997 ft | 452 kts | 212° |
| 2026-05-05 00:02 | 41.10895 | -11.73348 | 33997 ft | 452 kts | 212° |
| 2026-05-05 00:02 | 41.05444 | -11.77493 | 33997 ft | 452 kts | 212° |
| 2026-05-05 00:03 | 41.00031 | -11.81629 | 33997 ft | 452 kts | 213° |
| 2026-05-05 00:03 | 40.94632 | -11.85767 | 33996 ft | 452 kts | 212° |
| 2026-05-05 00:04 | 40.89166 | -11.89931 | 33999 ft | 452 kts | 212° |
| 2026-05-05 00:04 | 40.83775 | -11.94021 | 33997 ft | 452 kts | 212° |
| 2026-05-05 00:05 | 40.78470 | -11.98038 | 33997 ft | 452 kts | 212° |
| 2026-05-05 00:05 | 40.72907 | -12.02240 | 33997 ft | 452 kts | 212° |
| 2026-05-05 00:06 | 40.67444 | -12.06358 | 33997 ft | 452 kts | 212° |
| 2026-05-05 00:06 | 40.62029 | -12.10433 | 33996 ft | 452 kts | 212° |
| 2026-05-05 00:07 | 40.56593 | -12.14515 | 33997 ft | 452 kts | 212° |
| 2026-05-05 00:07 | 40.51158 | -12.18590 | 33996 ft | 452 kts | 212° |
| 2026-05-05 00:08 | 40.45678 | -12.22690 | 33997 ft | 452 kts | 212° |
| 2026-05-05 00:08 | 40.40261 | -12.26736 | 33997 ft | 452 kts | 212° |
| 2026-05-05 00:09 | 40.34866 | -12.30756 | 33997 ft | 452 kts | 212° |
| 2026-05-05 00:09 | 40.29500 | -12.34750 | 33997 ft | 452 kts | 212° |
| 2026-05-05 00:10 | 40.23974 | -12.38854 | 33997 ft | 452 kts | 212° |
| 2026-05-05 00:10 | 40.18513 | -12.42902 | 33997 ft | 452 kts | 212° |
| 2026-05-05 00:11 | 40.13178 | -12.46858 | 33997 ft | 452 kts | 212° |
| 2026-05-05 00:11 | 40.07721 | -12.50912 | 33997 ft | 452 kts | 212° |
| 2026-05-05 00:12 | 40.02295 | -12.54907 | 33997 ft | 452 kts | 212° |
| 2026-05-05 00:12 | 39.96725 | -12.58995 | 33997 ft | 452 kts | 212° |
| 2026-05-05 00:13 | 39.91383 | -12.62910 | 33997 ft | 452 kts | 212° |
| 2026-05-05 00:13 | 39.85964 | -12.66878 | 33997 ft | 452 kts | 212° |
| 2026-05-05 00:14 | 39.80445 | -12.70613 | 33996 ft | 453 kts | 208° |
| 2026-05-05 00:14 | 39.74763 | -12.74214 | 33997 ft | 453 kts | 209° |
| 2026-05-05 00:15 | 39.69267 | -12.77734 | 33997 ft | 453 kts | 209° |
| 2026-05-05 00:15 | 39.63549 | -12.81411 | 33996 ft | 453 kts | 209° |
| 2026-05-05 00:16 | 39.57964 | -12.85003 | 33996 ft | 453 kts | 209° |
| 2026-05-05 00:16 | 39.52363 | -12.88627 | 33997 ft | 453 kts | 209° |
| 2026-05-05 00:17 | 39.46641 | -12.92334 | 33997 ft | 453 kts | 209° |
| 2026-05-05 00:17 | 39.41061 | -12.95930 | 33997 ft | 453 kts | 209° |
| 2026-05-05 00:18 | 39.35596 | -12.99441 | 33996 ft | 453 kts | 209° |
| 2026-05-05 00:18 | 39.29892 | -13.03097 | 33997 ft | 453 kts | 209° |
| 2026-05-05 00:19 | 39.24324 | -13.06658 | 33997 ft | 453 kts | 209° |
| 2026-05-05 00:19 | 39.18755 | -13.10213 | 33997 ft | 453 kts | 209° |
| 2026-05-05 00:20 | 39.13054 | -13.13846 | 33997 ft | 453 kts | 209° |
| 2026-05-05 00:20 | 39.07453 | -13.17409 | 33997 ft | 453 kts | 209° |
| 2026-05-05 00:21 | 39.01920 | -13.20922 | 33997 ft | 453 kts | 209° |
| 2026-05-05 00:21 | 38.96400 | -13.24422 | 33997 ft | 453 kts | 209° |
| 2026-05-05 00:22 | 38.90703 | -13.28027 | 33997 ft | 453 kts | 209° |
| 2026-05-05 00:22 | 38.85031 | -13.31609 | 33996 ft | 453 kts | 209° |
| 2026-05-05 00:23 | 38.79384 | -13.35169 | 33996 ft | 453 kts | 209° |
| 2026-05-05 00:23 | 38.73728 | -13.38730 | 33997 ft | 453 kts | 209° |
| 2026-05-05 00:24 | 38.68068 | -13.42286 | 33997 ft | 453 kts | 209° |
| 2026-05-05 00:24 | 38.62508 | -13.45773 | 33997 ft | 453 kts | 209° |
| 2026-05-05 00:25 | 38.56894 | -13.49288 | 33998 ft | 453 kts | 209° |
| 2026-05-05 00:25 | 38.51328 | -13.52767 | 33997 ft | 453 kts | 209° |
| 2026-05-05 00:26 | 38.45758 | -13.56243 | 33997 ft | 453 kts | 208° |
| 2026-05-05 00:26 | 38.40104 | -13.59789 | 33996 ft | 453 kts | 209° |
| 2026-05-05 00:27 | 38.34492 | -13.63278 | 33997 ft | 453 kts | 208° |
| 2026-05-05 00:27 | 38.28861 | -13.66766 | 33997 ft | 453 kts | 208° |
| 2026-05-05 00:28 | 38.23165 | -13.70288 | 33997 ft | 453 kts | 208° |
| 2026-05-05 00:28 | 38.17481 | -13.73798 | 33997 ft | 453 kts | 208° |
| 2026-05-05 00:29 | 38.11845 | -13.76833 | 33997 ft | 455 kts | 203° |
| 2026-05-05 00:29 | 38.05877 | -13.79500 | 33998 ft | 456 kts | 202° |
| 2026-05-05 00:30 | 38.00008 | -13.82131 | 33997 ft | 456 kts | 202° |
| 2026-05-05 00:30 | 37.94339 | -13.84696 | 33997 ft | 456 kts | 202° |
| 2026-05-05 00:31 | 37.88623 | -13.87291 | 33996 ft | 456 kts | 202° |
| 2026-05-05 00:31 | 37.82708 | -13.89983 | 33997 ft | 456 kts | 203° |
| 2026-05-05 00:32 | 37.76747 | -13.92720 | 33997 ft | 456 kts | 202° |
| 2026-05-05 00:32 | 37.70887 | -13.95396 | 33997 ft | 456 kts | 202° |
| 2026-05-05 00:33 | 37.65203 | -13.97982 | 33997 ft | 456 kts | 202° |
| 2026-05-05 00:33 | 37.59163 | -14.00723 | 33997 ft | 456 kts | 202° |
| 2026-05-05 00:34 | 37.53186 | -14.03430 | 33997 ft | 456 kts | 202° |
| 2026-05-05 00:34 | 37.47242 | -14.06117 | 33996 ft | 456 kts | 202° |
| 2026-05-05 00:35 | 37.41251 | -14.08821 | 33997 ft | 456 kts | 202° |
| 2026-05-05 00:35 | 37.35333 | -14.11488 | 33996 ft | 456 kts | 202° |
| 2026-05-05 00:36 | 37.29391 | -14.14160 | 33997 ft | 456 kts | 202° |
| 2026-05-05 00:36 | 37.23508 | -14.16802 | 33997 ft | 456 kts | 202° |
| 2026-05-05 00:37 | 37.17681 | -14.19414 | 33997 ft | 456 kts | 202° |
| 2026-05-05 00:37 | 37.11789 | -14.22051 | 33996 ft | 456 kts | 202° |
| 2026-05-05 00:38 | 37.05817 | -14.24719 | 33997 ft | 456 kts | 202° |
| 2026-05-05 00:38 | 36.99960 | -14.27332 | 33997 ft | 456 kts | 202° |
| 2026-05-05 00:39 | 36.93941 | -14.30012 | 33997 ft | 456 kts | 202° |
| 2026-05-05 00:39 | 36.88018 | -14.32645 | 33997 ft | 456 kts | 202° |
| 2026-05-05 00:40 | 36.82055 | -14.35291 | 33997 ft | 456 kts | 202° |
| 2026-05-05 00:40 | 36.76231 | -14.37872 | 33997 ft | 456 kts | 202° |
| 2026-05-05 00:41 | 36.70170 | -14.40553 | 33997 ft | 456 kts | 202° |
| 2026-05-05 00:41 | 36.64336 | -14.43130 | 33997 ft | 456 kts | 202° |
| 2026-05-05 00:42 | 36.58352 | -14.45769 | 33997 ft | 456 kts | 202° |
| 2026-05-05 00:42 | 36.52394 | -14.48391 | 33997 ft | 456 kts | 202° |
| 2026-05-05 00:43 | 36.47455 | -14.50562 | 33996 ft | 456 kts | 202° |
| 2026-05-05 00:43 | 36.41475 | -14.53187 | 33997 ft | 456 kts | 202° |
| 2026-05-05 00:44 | 36.34472 | -14.56255 | 33997 ft | 456 kts | 202° |
| 2026-05-05 00:44 | 36.29554 | -14.58406 | 33997 ft | 456 kts | 202° |
| 2026-05-05 00:45 | 36.23544 | -14.61031 | 33997 ft | 456 kts | 202° |
| 2026-05-05 00:45 | 36.17633 | -14.63609 | 33997 ft | 456 kts | 202° |
| 2026-05-05 00:46 | 36.11603 | -14.66234 | 33996 ft | 456 kts | 202° |
| 2026-05-05 00:46 | 36.05668 | -14.68814 | 33997 ft | 456 kts | 202° |
| 2026-05-05 00:47 | 35.99796 | -14.71362 | 33997 ft | 456 kts | 202° |
| 2026-05-05 00:47 | 35.93788 | -14.73965 | 33998 ft | 456 kts | 202° |
| 2026-05-05 00:48 | 35.87876 | -14.76522 | 33997 ft | 456 kts | 202° |
| 2026-05-05 00:48 | 35.81778 | -14.79155 | 33997 ft | 456 kts | 202° |
| 2026-05-05 00:49 | 35.75782 | -14.81741 | 33996 ft | 456 kts | 202° |
| 2026-05-05 00:49 | 35.69882 | -14.84280 | 33997 ft | 456 kts | 202° |
| 2026-05-05 00:50 | 35.63987 | -14.86814 | 33997 ft | 456 kts | 202° |
| 2026-05-05 00:50 | 35.57954 | -14.89403 | 33997 ft | 456 kts | 202° |
| 2026-05-05 00:51 | 35.52051 | -14.91932 | 33997 ft | 456 kts | 202° |
| 2026-05-05 00:51 | 35.46198 | -14.94436 | 33998 ft | 456 kts | 202° |
| 2026-05-05 00:52 | 35.40165 | -14.97013 | 33997 ft | 456 kts | 202° |
| 2026-05-05 00:52 | 35.34193 | -14.99560 | 33997 ft | 456 kts | 202° |
| 2026-05-05 00:53 | 35.28169 | -15.02125 | 33996 ft | 456 kts | 202° |
| 2026-05-05 00:53 | 35.22156 | -15.04681 | 33997 ft | 456 kts | 202° |
| 2026-05-05 00:54 | 35.16236 | -15.07194 | 33997 ft | 456 kts | 202° |
| 2026-05-05 00:54 | 35.10262 | -15.09726 | 33997 ft | 456 kts | 202° |
| 2026-05-05 00:55 | 35.04323 | -15.12239 | 33997 ft | 456 kts | 202° |
| 2026-05-05 00:55 | 34.98373 | -15.14753 | 33997 ft | 456 kts | 202° |
| 2026-05-05 00:56 | 34.92508 | -15.17227 | 33997 ft | 456 kts | 202° |
| 2026-05-05 00:56 | 34.86496 | -15.19759 | 33997 ft | 456 kts | 202° |
| 2026-05-05 00:57 | 34.80588 | -15.22255 | 33997 ft | 456 kts | 202° |
| 2026-05-05 00:57 | 34.74749 | -15.24711 | 33997 ft | 456 kts | 202° |
| 2026-05-05 00:58 | 34.68796 | -15.27203 | 33996 ft | 456 kts | 202° |
| 2026-05-05 00:58 | 34.62840 | -15.29692 | 33996 ft | 456 kts | 202° |
| 2026-05-05 00:59 | 34.56967 | -15.32144 | 33997 ft | 456 kts | 202° |
| 2026-05-05 00:59 | 34.51052 | -15.34636 | 33996 ft | 455 kts | 203° |
| 2026-05-05 01:00 | 34.45157 | -15.37368 | 33996 ft | 455 kts | 204° |
| 2026-05-05 01:00 | 34.39698 | -15.39893 | 33997 ft | 455 kts | 204° |
| 2026-05-05 01:01 | 34.33754 | -15.42623 | 33997 ft | 455 kts | 204° |
| 2026-05-05 01:01 | 34.27959 | -15.45276 | 33996 ft | 455 kts | 204° |
| 2026-05-05 01:02 | 34.21998 | -15.48000 | 33998 ft | 455 kts | 204° |
| 2026-05-05 01:02 | 34.16181 | -15.50673 | 33997 ft | 455 kts | 204° |
| 2026-05-05 01:03 | 34.10220 | -15.53402 | 33997 ft | 455 kts | 204° |
| 2026-05-05 01:03 | 34.04378 | -15.56067 | 33997 ft | 455 kts | 204° |
| 2026-05-05 01:04 | 33.98610 | -15.58691 | 33997 ft | 455 kts | 204° |
| 2026-05-05 01:04 | 33.89729 | -15.62725 | 33997 ft | 455 kts | 203° |
| 2026-05-05 01:05 | 33.83858 | -15.65396 | 33997 ft | 455 kts | 204° |
| 2026-05-05 01:05 | 33.77988 | -15.68059 | 33997 ft | 455 kts | 203° |
| 2026-05-05 01:06 | 33.72174 | -15.70683 | 33997 ft | 455 kts | 203° |
| 2026-05-05 01:06 | 33.66266 | -15.73345 | 33997 ft | 455 kts | 203° |
| 2026-05-05 01:07 | 33.60363 | -15.76002 | 33997 ft | 455 kts | 203° |
| 2026-05-05 01:07 | 33.54473 | -15.78623 | 33996 ft | 456 kts | 201° |
| 2026-05-05 01:08 | 33.48388 | -15.80860 | 33997 ft | 457 kts | 199° |
| 2026-05-05 01:08 | 33.42386 | -15.83033 | 33997 ft | 457 kts | 200° |
| 2026-05-05 01:09 | 33.36311 | -15.85252 | 33997 ft | 457 kts | 200° |
| 2026-05-05 01:09 | 33.30312 | -15.87448 | 33997 ft | 457 kts | 200° |
| 2026-05-05 01:10 | 33.24273 | -15.89659 | 33995 ft | 457 kts | 200° |
| 2026-05-05 01:10 | 33.18306 | -15.91860 | 33997 ft | 457 kts | 200° |
| 2026-05-05 01:11 | 33.12254 | -15.94087 | 33997 ft | 457 kts | 200° |
| 2026-05-05 01:11 | 33.06155 | -15.96323 | 33997 ft | 457 kts | 200° |
| 2026-05-05 01:12 | 33.00079 | -15.98545 | 33998 ft | 457 kts | 200° |
| 2026-05-05 01:12 | 32.94090 | -16.00731 | 33997 ft | 457 kts | 200° |
| 2026-05-05 01:13 | 32.88061 | -16.02929 | 33997 ft | 457 kts | 200° |
| 2026-05-05 01:13 | 32.82144 | -16.05083 | 33997 ft | 457 kts | 200° |
| 2026-05-05 01:14 | 32.76096 | -16.07281 | 33997 ft | 457 kts | 200° |
| 2026-05-05 01:14 | 32.69907 | -16.09527 | 33997 ft | 457 kts | 200° |
| 2026-05-05 01:15 | 32.63877 | -16.11712 | 33997 ft | 457 kts | 200° |
| 2026-05-05 01:15 | 32.58024 | -16.13831 | 33997 ft | 457 kts | 200° |
| 2026-05-05 01:16 | 32.52183 | -16.15942 | 33997 ft | 457 kts | 200° |
| 2026-05-05 01:16 | 32.46058 | -16.18152 | 33997 ft | 457 kts | 200° |
| 2026-05-05 01:17 | 32.39983 | -16.20342 | 33997 ft | 457 kts | 200° |
| 2026-05-05 01:17 | 32.34077 | -16.22467 | 33997 ft | 457 kts | 200° |
| 2026-05-05 01:18 | 32.27838 | -16.24710 | 33998 ft | 457 kts | 200° |
| 2026-05-05 01:18 | 32.21886 | -16.26846 | 33997 ft | 457 kts | 200° |
| 2026-05-05 01:19 | 32.15843 | -16.29012 | 33997 ft | 457 kts | 200° |
| 2026-05-05 01:19 | 32.09812 | -16.31170 | 33997 ft | 457 kts | 200° |
| 2026-05-05 01:20 | 32.03767 | -16.33331 | 33997 ft | 457 kts | 200° |
| 2026-05-05 01:20 | 31.97819 | -16.35454 | 33997 ft | 457 kts | 200° |
| 2026-05-05 01:21 | 31.91677 | -16.37644 | 33998 ft | 457 kts | 200° |
| 2026-05-05 01:21 | 31.85722 | -16.39763 | 33997 ft | 457 kts | 200° |
| 2026-05-05 01:22 | 31.79712 | -16.41900 | 33997 ft | 457 kts | 200° |
| 2026-05-05 01:22 | 31.73676 | -16.44042 | 33657 ft | 458 kts | 200° |
| 2026-05-05 01:23 | 31.70653 | -16.45119 | 33410 ft | 457 kts | 200° |
| 2026-05-05 01:23 | 31.67683 | -16.46177 | 33166 ft | 458 kts | 200° |
| 2026-05-05 01:23 | 31.64758 | -16.47214 | 32926 ft | 458 kts | 200° |
| 2026-05-05 01:23 | 31.61539 | -16.48353 | 32664 ft | 459 kts | 200° |
| 2026-05-05 01:24 | 31.58511 | -16.49422 | 32417 ft | 459 kts | 200° |
| 2026-05-05 01:24 | 31.55514 | -16.50480 | 32172 ft | 460 kts | 199° |
| 2026-05-05 01:24 | 31.52486 | -16.51547 | 31926 ft | 460 kts | 199° |
| 2026-05-05 01:24 | 31.49380 | -16.52642 | 31673 ft | 461 kts | 199° |
| 2026-05-05 01:25 | 31.46358 | -16.53707 | 31428 ft | 461 kts | 199° |
| 2026-05-05 01:25 | 31.43288 | -16.54618 | 31180 ft | 464 kts | 194° |
| 2026-05-05 01:25 | 31.40130 | -16.55118 | 30935 ft | 468 kts | 187° |
| 2026-05-05 01:25 | 31.36898 | -16.55213 | 30688 ft | 470 kts | 181° |
| 2026-05-05 01:26 | 31.33769 | -16.55029 | 30450 ft | 472 kts | 179° |
| 2026-05-05 01:26 | 31.30432 | -16.54698 | 30196 ft | 473 kts | 178° |
| 2026-05-05 01:26 | 31.27235 | -16.54349 | 29953 ft | 474 kts | 178° |
| 2026-05-05 01:26 | 31.25005 | -16.54109 | 29778 ft | 467 kts | 178° |
| 2026-05-05 01:27 | 31.20935 | -16.53680 | 29456 ft | 454 kts | 178° |
| 2026-05-05 01:27 | 31.18827 | -16.53460 | 29285 ft | 447 kts | 178° |
| 2026-05-05 01:27 | 31.14898 | -16.53053 | 28962 ft | 436 kts | 178° |
| 2026-05-05 01:27 | 31.12056 | -16.52760 | 28724 ft | 428 kts | 178° |
| 2026-05-05 01:28 | 31.09140 | -16.52460 | 28474 ft | 421 kts | 178° |
| 2026-05-05 01:28 | 31.06315 | -16.52169 | 28227 ft | 414 kts | 178° |
| 2026-05-05 01:28 | 31.03429 | -16.51871 | 27972 ft | 407 kts | 178° |
| 2026-05-05 01:28 | 31.01600 | -16.51682 | 27807 ft | 402 kts | 178° |
| 2026-05-05 01:29 | 30.97943 | -16.51306 | 27473 ft | 394 kts | 178° |
| 2026-05-05 01:29 | 30.95397 | -16.51044 | 27237 ft | 388 kts | 179° |
| 2026-05-05 01:29 | 30.92690 | -16.50767 | 26945 ft | 384 kts | 179° |
| 2026-05-05 01:29 | 30.90943 | -16.50588 | 26745 ft | 381 kts | 179° |
| 2026-05-05 01:30 | 30.88030 | -16.50290 | 26411 ft | 376 kts | 179° |
| 2026-05-05 01:30 | 30.86470 | -16.50130 | 26232 ft | 374 kts | 179° |
| 2026-05-05 01:30 | 30.82957 | -16.49772 | 25821 ft | 369 kts | 179° |
| 2026-05-05 01:30 | 30.81407 | -16.49613 | 25638 ft | 367 kts | 179° |
| 2026-05-05 01:31 | 30.78826 | -16.49350 | 25331 ft | 363 kts | 179° |
| 2026-05-05 01:31 | 30.76279 | -16.49090 | 25026 ft | 360 kts | 179° |
| 2026-05-05 01:31 | 30.73847 | -16.48842 | 24731 ft | 357 kts | 179° |
| 2026-05-05 01:31 | 30.71433 | -16.48596 | 24436 ft | 354 kts | 179° |
| 2026-05-05 01:32 | 30.68993 | -16.48348 | 24136 ft | 351 kts | 179° |
| 2026-05-05 01:32 | 30.66585 | -16.48103 | 23837 ft | 348 kts | 179° |
| 2026-05-05 01:32 | 30.64132 | -16.47853 | 23530 ft | 346 kts | 179° |
| 2026-05-05 01:32 | 30.61823 | -16.47619 | 23239 ft | 343 kts | 179° |
| 2026-05-05 01:33 | 30.59475 | -16.47380 | 22941 ft | 341 kts | 179° |
| 2026-05-05 01:33 | 30.57102 | -16.47139 | 22637 ft | 338 kts | 179° |
| 2026-05-05 01:33 | 30.54747 | -16.46900 | 22334 ft | 336 kts | 179° |
| 2026-05-05 01:33 | 30.52485 | -16.46670 | 22042 ft | 334 kts | 179° |
| 2026-05-05 01:34 | 30.50139 | -16.46432 | 21736 ft | 332 kts | 179° |
| 2026-05-05 01:34 | 30.47870 | -16.46202 | 21439 ft | 330 kts | 179° |
| 2026-05-05 01:34 | 30.45569 | -16.45969 | 21136 ft | 328 kts | 179° |
| 2026-05-05 01:34 | 30.43353 | -16.45745 | 20842 ft | 326 kts | 179° |
| 2026-05-05 01:35 | 30.41097 | -16.45516 | 20541 ft | 325 kts | 179° |
| 2026-05-05 01:35 | 30.38873 | -16.45291 | 20244 ft | 323 kts | 179° |
| 2026-05-05 01:35 | 30.36667 | -16.45068 | 19947 ft | 321 kts | 179° |
| 2026-05-05 01:35 | 30.34421 | -16.44841 | 19643 ft | 320 kts | 179° |
| 2026-05-05 01:36 | 30.32222 | -16.44619 | 19344 ft | 318 kts | 179° |
| 2026-05-05 01:36 | 30.30017 | -16.44396 | 19043 ft | 317 kts | 179° |
| 2026-05-05 01:36 | 30.27859 | -16.44178 | 18748 ft | 316 kts | 179° |
| 2026-05-05 01:36 | 30.25672 | -16.43958 | 18447 ft | 314 kts | 179° |
| 2026-05-05 01:37 | 30.23471 | -16.43736 | 18142 ft | 313 kts | 179° |
| 2026-05-05 01:37 | 30.21370 | -16.43524 | 17851 ft | 312 kts | 179° |
| 2026-05-05 01:37 | 30.19186 | -16.43304 | 17547 ft | 310 kts | 179° |
| 2026-05-05 01:37 | 30.17053 | -16.43089 | 17248 ft | 309 kts | 179° |
| 2026-05-05 01:38 | 30.14953 | -16.42877 | 16953 ft | 308 kts | 179° |
| 2026-05-05 01:38 | 30.12778 | -16.42658 | 16647 ft | 307 kts | 179° |
| 2026-05-05 01:38 | 30.10662 | -16.42446 | 16347 ft | 306 kts | 179° |
| 2026-05-05 01:38 | 30.08556 | -16.42234 | 16048 ft | 305 kts | 179° |
| 2026-05-05 01:39 | 30.06454 | -16.42022 | 15749 ft | 304 kts | 179° |
| 2026-05-05 01:39 | 30.04436 | -16.41820 | 15461 ft | 303 kts | 179° |
| 2026-05-05 01:39 | 30.02296 | -16.41605 | 15237 ft | 299 kts | 179° |
| 2026-05-05 01:39 | 30.00305 | -16.41405 | 15054 ft | 294 kts | 179° |
| 2026-05-05 01:40 | 29.98247 | -16.41198 | 14757 ft | 293 kts | 179° |
| 2026-05-05 01:40 | 29.96307 | -16.41004 | 14470 ft | 293 kts | 179° |
| 2026-05-05 01:40 | 29.94258 | -16.40798 | 14188 ft | 292 kts | 179° |
| 2026-05-05 01:40 | 29.92231 | -16.40595 | 13912 ft | 291 kts | 179° |
| 2026-05-05 01:41 | 29.90246 | -16.40395 | 13639 ft | 289 kts | 179° |
| 2026-05-05 01:41 | 29.88346 | -16.40203 | 13514 ft | 282 kts | 179° |
| 2026-05-05 01:41 | 29.86328 | -16.40001 | 13341 ft | 277 kts | 180° |
| 2026-05-05 01:41 | 29.84528 | -16.39821 | 13129 ft | 274 kts | 180° |
| 2026-05-05 01:42 | 29.82533 | -16.39621 | 12845 ft | 273 kts | 180° |
| 2026-05-05 01:42 | 29.80681 | -16.39436 | 12575 ft | 272 kts | 180° |
| 2026-05-05 01:42 | 29.78777 | -16.39246 | 12378 ft | 268 kts | 180° |
| 2026-05-05 01:42 | 29.76930 | -16.39062 | 12107 ft | 267 kts | 180° |
| 2026-05-05 01:43 | 29.75081 | -16.38877 | 11832 ft | 266 kts | 180° |
| 2026-05-05 01:43 | 29.73255 | -16.38695 | 11695 ft | 259 kts | 180° |
| 2026-05-05 01:43 | 29.71553 | -16.38526 | 11635 ft | 250 kts | 180° |
| 2026-05-05 01:43 | 29.69866 | -16.38357 | 11550 ft | 240 kts | 180° |
| 2026-05-05 01:44 | 29.68229 | -16.38194 | 11466 ft | 231 kts | 180° |
| 2026-05-05 01:44 | 29.66723 | -16.38044 | 11313 ft | 227 kts | 180° |
| 2026-05-05 01:44 | 29.65109 | -16.37884 | 11072 ft | 226 kts | 180° |
| 2026-05-05 01:44 | 29.63661 | -16.37740 | 10850 ft | 224 kts | 180° |
| 2026-05-05 01:45 | 29.62079 | -16.37582 | 10606 ft | 223 kts | 180° |
| 2026-05-05 01:45 | 29.60545 | -16.37429 | 10370 ft | 222 kts | 180° |
| 2026-05-05 01:45 | 29.59054 | -16.37079 | 10131 ft | 226 kts | 166° |
| 2026-05-05 01:45 | 29.57585 | -16.36339 | 9896 ft | 229 kts | 158° |
| 2026-05-05 01:46 | 29.56212 | -16.35500 | 9663 ft | 228 kts | 156° |
| 2026-05-05 01:46 | 29.54852 | -16.34631 | 9430 ft | 228 kts | 155° |
| 2026-05-05 01:46 | 29.53518 | -16.33778 | 9200 ft | 227 kts | 155° |
| 2026-05-05 01:46 | 29.52094 | -16.32870 | 8954 ft | 226 kts | 156° |
| 2026-05-05 01:47 | 29.50768 | -16.32026 | 8724 ft | 225 kts | 156° |
| 2026-05-05 01:47 | 29.49488 | -16.31214 | 8501 ft | 224 kts | 156° |
| 2026-05-05 01:47 | 29.48160 | -16.30372 | 8270 ft | 224 kts | 156° |
| 2026-05-05 01:47 | 29.46787 | -16.29502 | 8029 ft | 223 kts | 156° |
| 2026-05-05 01:48 | 29.45529 | -16.28706 | 7808 ft | 222 kts | 156° |
| 2026-05-05 01:48 | 29.44159 | -16.27841 | 7567 ft | 221 kts | 156° |
| 2026-05-05 01:48 | 29.42814 | -16.26991 | 7329 ft | 220 kts | 156° |
| 2026-05-05 01:48 | 29.41473 | -16.26145 | 7091 ft | 220 kts | 156° |
| 2026-05-05 01:49 | 29.40222 | -16.25356 | 6984 ft | 216 kts | 156° |
| 2026-05-05 01:49 | 29.38846 | -16.24489 | 6984 ft | 213 kts | 156° |
| 2026-05-05 01:49 | 29.37563 | -16.23681 | 6996 ft | 215 kts | 156° |
| 2026-05-05 01:49 | 29.36226 | -16.22839 | 7001 ft | 217 kts | 156° |
| 2026-05-05 01:50 | 29.34946 | -16.22033 | 7006 ft | 220 kts | 156° |
| 2026-05-05 01:50 | 29.33601 | -16.21187 | 6999 ft | 220 kts | 156° |
| 2026-05-05 01:50 | 29.32343 | -16.20396 | 6995 ft | 219 kts | 156° |
| 2026-05-05 01:50 | 29.30997 | -16.19550 | 6997 ft | 219 kts | 156° |
| 2026-05-05 01:51 | 29.29723 | -16.18749 | 6997 ft | 219 kts | 156° |
| 2026-05-05 01:51 | 29.28390 | -16.17904 | 6997 ft | 220 kts | 156° |
| 2026-05-05 01:51 | 29.27100 | -16.17086 | 6997 ft | 220 kts | 156° |
| 2026-05-05 01:51 | 29.25714 | -16.16208 | 6997 ft | 220 kts | 156° |
| 2026-05-05 01:52 | 29.24417 | -16.15389 | 6997 ft | 219 kts | 156° |
| 2026-05-05 01:52 | 29.23042 | -16.14521 | 6997 ft | 219 kts | 156° |
| 2026-05-05 01:52 | 29.21744 | -16.13703 | 6999 ft | 219 kts | 156° |
| 2026-05-05 01:52 | 29.20368 | -16.12836 | 7043 ft | 219 kts | 156° |
| 2026-05-05 01:53 | 29.19051 | -16.12006 | 7082 ft | 220 kts | 156° |
| 2026-05-05 01:53 | 29.17729 | -16.11175 | 6998 ft | 221 kts | 156° |
| 2026-05-05 01:53 | 29.16371 | -16.10321 | 6870 ft | 220 kts | 156° |
| 2026-05-05 01:53 | 29.15055 | -16.09495 | 6747 ft | 220 kts | 156° |
| 2026-05-05 01:54 | 29.13744 | -16.08671 | 6624 ft | 219 kts | 156° |
| 2026-05-05 01:54 | 29.12396 | -16.07825 | 6497 ft | 219 kts | 155° |
| 2026-05-05 01:54 | 29.11072 | -16.06994 | 6372 ft | 218 kts | 154° |
| 2026-05-05 01:54 | 29.09758 | -16.06170 | 6249 ft | 219 kts | 154° |
| 2026-05-05 01:55 | 29.08409 | -16.05324 | 6124 ft | 220 kts | 153° |
| 2026-05-05 01:55 | 29.07055 | -16.04476 | 5997 ft | 219 kts | 153° |
| 2026-05-05 01:55 | 29.05721 | -16.03640 | 5873 ft | 219 kts | 152° |
| 2026-05-05 01:55 | 29.04439 | -16.02837 | 5750 ft | 215 kts | 152° |
| 2026-05-05 01:56 | 29.03116 | -16.02009 | 5624 ft | 214 kts | 152° |
| 2026-05-05 01:56 | 29.01827 | -16.01202 | 5500 ft | 212 kts | 151° |
| 2026-05-05 01:56 | 29.00511 | -16.00378 | 5372 ft | 210 kts | 151° |
| 2026-05-05 01:56 | 28.99274 | -15.99604 | 5251 ft | 208 kts | 151° |
| 2026-05-05 01:57 | 28.97989 | -15.98801 | 5122 ft | 205 kts | 151° |
| 2026-05-05 01:57 | 28.96761 | -15.98033 | 5007 ft | 204 kts | 151° |
| 2026-05-05 01:57 | 28.95513 | -15.97253 | 4985 ft | 200 kts | 151° |
| 2026-05-05 01:57 | 28.94312 | -15.96502 | 4994 ft | 201 kts | 151° |
| 2026-05-05 01:58 | 28.93056 | -15.95717 | 5001 ft | 204 kts | 151° |
| 2026-05-05 01:58 | 28.91825 | -15.94949 | 5000 ft | 205 kts | 151° |
| 2026-05-05 01:58 | 28.90573 | -15.94167 | 4996 ft | 204 kts | 151° |
| 2026-05-05 01:58 | 28.89354 | -15.93406 | 4997 ft | 204 kts | 151° |
| 2026-05-05 01:59 | 28.88079 | -15.92610 | 4997 ft | 204 kts | 151° |
| 2026-05-05 01:59 | 28.86890 | -15.91868 | 4997 ft | 204 kts | 151° |
| 2026-05-05 01:59 | 28.85575 | -15.91049 | 4997 ft | 204 kts | 151° |
| 2026-05-05 01:59 | 28.84359 | -15.90290 | 4997 ft | 204 kts | 151° |
| 2026-05-05 02:00 | 28.83096 | -15.89503 | 4997 ft | 204 kts | 151° |
| 2026-05-05 02:00 | 28.81870 | -15.88739 | 4996 ft | 204 kts | 151° |
| 2026-05-05 02:00 | 28.80604 | -15.87950 | 4997 ft | 204 kts | 151° |
| 2026-05-05 02:00 | 28.79370 | -15.87182 | 4997 ft | 204 kts | 151° |
| 2026-05-05 02:01 | 28.78103 | -15.86393 | 4997 ft | 204 kts | 151° |
| 2026-05-05 02:01 | 28.76897 | -15.85642 | 4997 ft | 204 kts | 151° |
| 2026-05-05 02:01 | 28.75631 | -15.84854 | 4997 ft | 204 kts | 151° |
| 2026-05-05 02:01 | 28.74428 | -15.84106 | 4997 ft | 204 kts | 151° |
| 2026-05-05 02:02 | 28.73117 | -15.83290 | 4997 ft | 204 kts | 151° |
| 2026-05-05 02:02 | 28.71862 | -15.82510 | 4997 ft | 204 kts | 151° |
| 2026-05-05 02:02 | 28.70632 | -15.81745 | 4997 ft | 204 kts | 151° |
| 2026-05-05 02:02 | 28.69390 | -15.80973 | 4997 ft | 204 kts | 151° |
| 2026-05-05 02:03 | 28.68142 | -15.80198 | 4996 ft | 204 kts | 151° |
| 2026-05-05 02:03 | 28.66924 | -15.79441 | 4997 ft | 204 kts | 151° |
| 2026-05-05 02:03 | 28.65665 | -15.78659 | 4997 ft | 204 kts | 151° |
| 2026-05-05 02:03 | 28.64393 | -15.77870 | 4997 ft | 204 kts | 151° |
| 2026-05-05 02:04 | 28.63163 | -15.77107 | 4997 ft | 204 kts | 151° |
| 2026-05-05 02:04 | 28.61896 | -15.76320 | 4997 ft | 204 kts | 151° |
| 2026-05-05 02:04 | 28.60687 | -15.75570 | 4997 ft | 204 kts | 151° |
| 2026-05-05 02:04 | 28.59416 | -15.74782 | 4997 ft | 204 kts | 151° |
| 2026-05-05 02:05 | 28.58244 | -15.74053 | 4997 ft | 204 kts | 151° |
| 2026-05-05 02:05 | 28.56958 | -15.73249 | 4997 ft | 204 kts | 151° |
| 2026-05-05 02:05 | 28.55744 | -15.72493 | 4997 ft | 204 kts | 151° |
| 2026-05-05 02:05 | 28.54471 | -15.71701 | 4997 ft | 204 kts | 151° |
| 2026-05-05 02:06 | 28.53245 | -15.70941 | 4998 ft | 204 kts | 151° |
| 2026-05-05 02:06 | 28.52028 | -15.70187 | 4997 ft | 204 kts | 151° |
| 2026-05-05 02:06 | 28.50793 | -15.69423 | 4997 ft | 204 kts | 151° |
| 2026-05-05 02:06 | 28.49539 | -15.68647 | 4997 ft | 204 kts | 151° |
| 2026-05-05 02:07 | 28.48316 | -15.67892 | 4997 ft | 204 kts | 151° |
| 2026-05-05 02:07 | 28.47041 | -15.67104 | 4997 ft | 204 kts | 151° |
| 2026-05-05 02:07 | 28.45845 | -15.66366 | 4997 ft | 204 kts | 151° |
| 2026-05-05 02:07 | 28.44549 | -15.65566 | 4997 ft | 204 kts | 151° |
| 2026-05-05 02:08 | 28.43295 | -15.64793 | 4997 ft | 204 kts | 151° |
| 2026-05-05 02:08 | 28.42051 | -15.64025 | 4997 ft | 204 kts | 151° |
| 2026-05-05 02:08 | 28.40820 | -15.63266 | 4996 ft | 204 kts | 151° |
| 2026-05-05 02:08 | 28.39555 | -15.62486 | 4997 ft | 204 kts | 151° |
| 2026-05-05 02:09 | 28.38299 | -15.61712 | 4997 ft | 204 kts | 151° |
| 2026-05-05 02:09 | 28.37049 | -15.60941 | 4996 ft | 204 kts | 151° |
| 2026-05-05 02:09 | 28.35846 | -15.60200 | 4997 ft | 204 kts | 151° |
| 2026-05-05 02:09 | 28.34587 | -15.59424 | 4997 ft | 204 kts | 151° |
| 2026-05-05 02:10 | 28.33320 | -15.58644 | 4997 ft | 204 kts | 151° |
| 2026-05-05 02:10 | 28.32080 | -15.57881 | 4997 ft | 204 kts | 151° |
| 2026-05-05 02:10 | 28.30887 | -15.57145 | 4997 ft | 204 kts | 151° |
| 2026-05-05 02:10 | 28.29576 | -15.56335 | 4997 ft | 204 kts | 151° |
| 2026-05-05 02:11 | 28.28367 | -15.55586 | 4997 ft | 204 kts | 151° |
| 2026-05-05 02:11 | 28.27132 | -15.54824 | 4997 ft | 204 kts | 151° |
| 2026-05-05 02:11 | 28.25947 | -15.54094 | 4990 ft | 199 kts | 151° |
| 2026-05-05 02:11 | 28.24722 | -15.53340 | 5000 ft | 195 kts | 151° |
| 2026-05-05 02:12 | 28.23551 | -15.52620 | 4987 ft | 192 kts | 151° |
| 2026-05-05 02:12 | 28.21215 | -15.51185 | 4997 ft | 193 kts | 152° |
| 2026-05-05 02:12 | 28.20438 | -15.50708 | 4997 ft | 193 kts | 152° |
| 2026-05-05 02:13 | 28.18873 | -15.49747 | 4997 ft | 193 kts | 152° |
| 2026-05-05 02:13 | 28.18111 | -15.49280 | 4996 ft | 193 kts | 152° |
| 2026-05-05 02:13 | 28.16552 | -15.48324 | 4983 ft | 186 kts | 152° |
| 2026-05-05 02:13 | 28.15467 | -15.47658 | 4947 ft | 176 kts | 152° |
| 2026-05-05 02:14 | 28.14436 | -15.47026 | 4916 ft | 166 kts | 152° |
| 2026-05-05 02:14 | 28.13765 | -15.46615 | 4898 ft | 159 kts | 150° |
| 2026-05-05 02:14 | 28.12659 | -15.45936 | 4924 ft | 157 kts | 150° |
| 2026-05-05 02:14 | 28.11969 | -15.45513 | 4911 ft | 164 kts | 152° |
| 2026-05-05 02:15 | 28.10980 | -15.44907 | 4971 ft | 168 kts | 152° |
| 2026-05-05 02:15 | 28.09913 | -15.44253 | 5028 ft | 173 kts | 153° |
| 2026-05-05 02:15 | 28.08508 | -15.43391 | 5020 ft | 173 kts | 153° |
| 2026-05-05 02:15 | 28.07828 | -15.42925 | 4994 ft | 173 kts | 146° |
| 2026-05-05 02:16 | 28.06942 | -15.42078 | 4992 ft | 172 kts | 135° |
| 2026-05-05 02:16 | 28.05793 | -15.40777 | 5002 ft | 173 kts | 135° |
| 2026-05-05 02:16 | 28.05253 | -15.40162 | 4998 ft | 173 kts | 135° |
| 2026-05-05 02:16 | 28.04394 | -15.39187 | 4996 ft | 172 kts | 135° |
| 2026-05-05 02:17 | 28.03529 | -15.38206 | 4997 ft | 173 kts | 135° |
| 2026-05-05 02:17 | 28.02682 | -15.37248 | 4997 ft | 172 kts | 135° |
| 2026-05-05 02:17 | 28.01847 | -15.36306 | 4997 ft | 172 kts | 135° |
| 2026-05-05 02:17 | 28.01004 | -15.35355 | 4985 ft | 173 kts | 135° |
| 2026-05-05 02:18 | 28.00156 | -15.34400 | 4848 ft | 173 kts | 135° |
| 2026-05-05 02:18 | 27.99321 | -15.33460 | 4723 ft | 170 kts | 135° |
| 2026-05-05 02:18 | 27.98484 | -15.32518 | 4596 ft | 168 kts | 135° |
| 2026-05-05 02:18 | 27.97667 | -15.31600 | 4473 ft | 167 kts | 135° |
| 2026-05-05 02:19 | 27.96872 | -15.30706 | 4352 ft | 166 kts | 135° |
| 2026-05-05 02:19 | 27.96032 | -15.29761 | 4224 ft | 165 kts | 135° |
| 2026-05-05 02:19 | 27.95220 | -15.28850 | 4099 ft | 164 kts | 135° |
| 2026-05-05 02:19 | 27.94407 | -15.27937 | 3991 ft | 163 kts | 134° |
| 2026-05-05 02:20 | 27.93609 | -15.27041 | 3991 ft | 163 kts | 134° |
| 2026-05-05 02:20 | 27.92799 | -15.26132 | 4002 ft | 164 kts | 134° |
| 2026-05-05 02:20 | 27.92043 | -15.25280 | 3998 ft | 164 kts | 134° |
| 2026-05-05 02:20 | 27.91223 | -15.24352 | 3996 ft | 163 kts | 134° |
| 2026-05-05 02:21 | 27.90421 | -15.23446 | 3997 ft | 164 kts | 134° |
| 2026-05-05 02:21 | 27.89614 | -15.22538 | 3996 ft | 163 kts | 134° |
| 2026-05-05 02:21 | 27.88808 | -15.21630 | 3997 ft | 163 kts | 134° |
| 2026-05-05 02:21 | 27.88006 | -15.20730 | 3997 ft | 163 kts | 134° |
| 2026-05-05 02:22 | 27.87198 | -15.19823 | 3997 ft | 163 kts | 134° |
| 2026-05-05 02:22 | 27.86394 | -15.18922 | 3997 ft | 163 kts | 134° |
| 2026-05-05 02:22 | 27.85593 | -15.18026 | 3997 ft | 163 kts | 134° |
| 2026-05-05 02:22 | 27.84791 | -15.17128 | 3997 ft | 163 kts | 134° |
| 2026-05-05 02:23 | 27.83914 | -15.16273 | 3953 ft | 165 kts | 155° |
| 2026-05-05 02:23 | 27.82812 | -15.16302 | 3897 ft | 163 kts | 210° |
| 2026-05-05 02:23 | 27.82133 | -15.17270 | 4006 ft | 159 kts | 249° |
| 2026-05-05 02:23 | 27.81868 | -15.18462 | 4073 ft | 161 kts | 262° |
| 2026-05-05 02:24 | 27.81687 | -15.19698 | 4048 ft | 160 kts | 262° |
| 2026-05-05 02:24 | 27.81521 | -15.20854 | 4011 ft | 160 kts | 260° |
| 2026-05-05 02:24 | 27.80922 | -15.21943 | 3921 ft | 163 kts | 215° |
| 2026-05-05 02:24 | 27.79845 | -15.22236 | 3988 ft | 162 kts | 178° |
| 2026-05-05 02:25 | 27.78697 | -15.22116 | 4116 ft | 165 kts | 174° |
| 2026-05-05 02:25 | 27.77595 | -15.21986 | 4079 ft | 166 kts | 174° |
| 2026-05-05 02:25 | 27.76411 | -15.21847 | 3905 ft | 167 kts | 174° |
| 2026-05-05 02:25 | 27.75255 | -15.21716 | 3706 ft | 164 kts | 174° |
| 2026-05-05 02:26 | 27.74134 | -15.21591 | 3499 ft | 158 kts | 174° |
| 2026-05-05 02:26 | 27.73129 | -15.21578 | 3287 ft | 156 kts | 188° |
| 2026-05-05 02:26 | 27.72090 | -15.22059 | 3072 ft | 155 kts | 213° |
| 2026-05-05 02:26 | 27.71413 | -15.22923 | 2886 ft | 156 kts | 238° |
| 2026-05-05 02:27 | 27.70861 | -15.24023 | 2714 ft | 157 kts | 241° |
| 2026-05-05 02:27 | 27.70348 | -15.25081 | 2517 ft | 156 kts | 241° |
| 2026-05-05 02:27 | 27.69831 | -15.26145 | 2463 ft | 153 kts | 241° |
| 2026-05-05 02:27 | 27.69344 | -15.27151 | 2461 ft | 150 kts | 241° |
| 2026-05-05 02:28 | 27.68847 | -15.28175 | 2474 ft | 150 kts | 241° |
| 2026-05-05 02:28 | 27.68349 | -15.29201 | 2491 ft | 151 kts | 241° |
| 2026-05-05 02:28 | 27.67836 | -15.30258 | 2495 ft | 151 kts | 241° |
| 2026-05-05 02:28 | 27.67347 | -15.31266 | 2497 ft | 151 kts | 241° |
| 2026-05-05 02:29 | 27.66829 | -15.32332 | 2497 ft | 152 kts | 241° |
| 2026-05-05 02:29 | 27.66314 | -15.33391 | 2538 ft | 159 kts | 241° |
| 2026-05-05 02:29 | 27.65764 | -15.34524 | 2555 ft | 164 kts | 241° |
| 2026-05-05 02:29 | 27.65238 | -15.35608 | 2533 ft | 163 kts | 241° |
| 2026-05-05 02:30 | 27.64694 | -15.36727 | 2507 ft | 162 kts | 241° |
| 2026-05-05 02:30 | 27.64241 | -15.37716 | 2485 ft | 163 kts | 250° |
| 2026-05-05 02:30 | 27.64395 | -15.38926 | 2406 ft | 163 kts | 304° |
| 2026-05-05 02:30 | 27.65338 | -15.39525 | 2478 ft | 166 kts | 352° |
| 2026-05-05 02:31 | 27.66456 | -15.39488 | 2606 ft | 163 kts | 1° |
| 2026-05-05 02:31 | 27.67568 | -15.39628 | 2562 ft | 163 kts | 347° |
| 2026-05-05 02:31 | 27.68617 | -15.40065 | 2530 ft | 162 kts | 336° |
| 2026-05-05 02:31 | 27.69650 | -15.40645 | 2519 ft | 162 kts | 332° |
| 2026-05-05 02:32 | 27.70597 | -15.41211 | 2509 ft | 162 kts | 332° |
| 2026-05-05 02:32 | 27.71632 | -15.41818 | 2467 ft | 163 kts | 333° |
| 2026-05-05 02:32 | 27.72615 | -15.42388 | 2324 ft | 163 kts | 333° |
| 2026-05-05 02:32 | 27.73642 | -15.42980 | 2166 ft | 161 kts | 333° |
| 2026-05-05 02:33 | 27.74629 | -15.43545 | 2005 ft | 157 kts | 333° |
| 2026-05-05 02:33 | 27.75581 | -15.44091 | 1838 ft | 152 kts | 333° |
| 2026-05-05 02:33 | 27.76525 | -15.44497 | 1676 ft | 149 kts | 342° |
| 2026-05-05 02:33 | 27.77499 | -15.44830 | 1513 ft | 146 kts | 349° |
| 2026-05-05 02:34 | 27.78491 | -15.44830 | 1452 ft | 144 kts | 9° |
| 2026-05-05 02:34 | 27.79479 | -15.44567 | 1526 ft | 142 kts | 15° |
| 2026-05-05 02:34 | 27.80359 | -15.44266 | 1595 ft | 143 kts | 18° |
| 2026-05-05 02:34 | 27.81346 | -15.43866 | 1560 ft | 143 kts | 20° |
| 2026-05-05 02:35 | 27.82233 | -15.43486 | 1514 ft | 140 kts | 21° |
| 2026-05-05 02:35 | 27.83174 | -15.43076 | 1488 ft | 140 kts | 21° |
| 2026-05-05 02:35 | 27.84045 | -15.42694 | 1501 ft | 140 kts | 21° |
| 2026-05-05 02:35 | 27.84967 | -15.42288 | 1498 ft | 140 kts | 21° |
| 2026-05-05 02:36 | 27.85841 | -15.41903 | 1395 ft | 142 kts | 21° |
| 2026-05-05 02:36 | 27.86800 | -15.41479 | 1163 ft | 142 kts | 21° |
| 2026-05-05 02:36 | 27.87720 | -15.41074 | 968 ft | 139 kts | 21° |
| 2026-05-05 02:36 | 27.88582 | -15.40693 | 796 ft | 137 kts | 21° |
| 2026-05-05 02:37 | 27.89411 | -15.40327 | 633 ft | 137 kts | 21° |
| 2026-05-05 02:37 | 27.90349 | -15.39913 | 445 ft | 138 kts | 21° |
| 2026-05-05 02:37 | 27.91246 | -15.39517 | 260 ft | 140 kts | 21° |
| 2026-05-05 02:37 | 27.92121 | -15.39131 | 88 ft | 131 kts | 21° |
| 2026-05-05 02:38 | 27.92753 | -15.38850 | 86 ft | 74 kts | 22° |
| 2026-05-05 02:38 | 27.93141 | -15.38666 | 86 ft | 53 kts | 13° |
| 2026-05-05 02:38 | 27.93447 | -15.38538 | 86 ft | 37 kts | 16° |
| 2026-05-05 02:38 | 27.93600 | -15.38449 | 86 ft | 18 kts | 53° |
| 2026-05-05 02:39 | 27.93593 | -15.38406 | 86 ft | 0 kts | 159° |
| 2026-05-05 02:40 | 27.93592 | -15.38405 | 86 ft | 1 kts | 159° |
| 2026-05-05 02:40 | 27.93589 | -15.38404 | 86 ft | 1 kts | 159° |
| 2026-05-05 02:40 | 27.93577 | -15.38399 | 86 ft | 4 kts | 159° |
| 2026-05-05 02:40 | 27.93537 | -15.38389 | 86 ft | 8 kts | 196° |
| 2026-05-05 02:41 | 27.93553 | -15.38430 | 86 ft | 11 kts | 356° |
| 2026-05-05 02:41 | 27.93644 | -15.38440 | 86 ft | 16 kts | 357° |
| 2026-05-05 02:41 | 27.93773 | -15.38453 | 86 ft | 21 kts | 350° |
| 2026-05-05 02:41 | 27.93919 | -15.38494 | 86 ft | 24 kts | 346° |
| 2026-05-05 02:42 | 27.94069 | -15.38563 | 86 ft | 19 kts | 313° |
| 2026-05-05 02:42 | 27.94104 | -15.38637 | 86 ft | 0 kts | 295° |